sensor_id;sensor_type;location;lat;lon;timestamp;pressure;altitude;pressure_sealevel;temperature;humidity
34031;BME280;20319;28.466;-16.274;2024-03-07T19:46:54;95959.25;;;14.09;100.00
34031;BME280;20319;28.466;-16.274;2024-03-07T19:49:20;95933.16;;;14.04;100.00
34031;BME280;20319;28.466;-16.274;2024-03-07T19:51:46;95949.56;;;13.98;100.00
34031;BME280;20319;28.466;-16.274;2024-03-07T19:54:12;95931.78;;;13.87;100.00
34031;BME280;20319;28.466;-16.274;2024-03-07T19:56:41;95949.03;;;13.96;100.00
34031;BME280;20319;28.466;-16.274;2024-03-07T19:59:08;95928.81;;;13.83;100.00
34031;BME280;20319;28.466;-16.274;2024-03-07T20:01:34;95947.41;;;13.95;100.00
34031;BME280;20319;28.466;-16.274;2024-03-07T20:04:03;95937.72;;;13.84;100.00
34031;BME280;20319;28.466;-16.274;2024-03-07T20:06:33;95958.97;;;13.90;100.00
34031;BME280;20319;28.466;-16.274;2024-03-07T20:09:00;95928.81;;;13.78;100.00
34031;BME280;20319;28.466;-16.274;2024-03-07T20:11:25;95954.13;;;13.92;100.00
34031;BME280;20319;28.466;-16.274;2024-03-07T20:13:51;95971.91;;;13.98;100.00
34031;BME280;20319;28.466;-16.274;2024-03-07T20:16:17;95966.25;;;14.00;100.00
34031;BME280;20319;28.466;-16.274;2024-03-07T20:18:43;95971.09;;;13.98;100.00
34031;BME280;20319;28.466;-16.274;2024-03-07T20:21:09;95914.00;;;13.66;100.00
34031;BME280;20319;28.466;-16.274;2024-03-07T20:23:34;95908.34;;;13.62;100.00
34031;BME280;20319;28.466;-16.274;2024-03-07T20:26:00;95929.34;;;13.70;100.00
34031;BME280;20319;28.466;-16.274;2024-03-07T20:28:28;95944.69;;;13.75;100.00
34031;BME280;20319;28.466;-16.274;2024-03-07T20:30:54;95971.91;;;13.98;100.00
34031;BME280;20319;28.466;-16.274;2024-03-07T20:33:21;95942.00;;;13.80;100.00
34031;BME280;20319;28.466;-16.274;2024-03-07T20:35:47;95989.66;;;14.09;100.00
34031;BME280;20319;28.466;-16.274;2024-03-07T20:38:16;95936.09;;;13.68;100.00
34031;BME280;20319;28.466;-16.274;2024-03-07T20:40:41;95903.75;;;13.53;100.00
34031;BME280;20319;28.466;-16.274;2024-03-07T20:43:07;95966.25;;;13.90;100.00
34031;BME280;20319;28.466;-16.274;2024-03-07T20:45:32;95931.75;;;13.67;100.00
34031;BME280;20319;28.466;-16.274;2024-03-07T20:48:00;95953.03;;;13.68;100.00
34031;BME280;20319;28.466;-16.274;2024-03-07T20:50:30;95985.09;;;14.00;100.00
34031;BME280;20319;28.466;-16.274;2024-03-07T20:52:57;95991.03;;;14.02;100.00
34031;BME280;20319;28.466;-16.274;2024-03-07T20:55:23;95970.81;;;13.84;100.00
34031;BME280;20319;28.466;-16.274;2024-03-07T20:57:52;96026.06;;;14.17;100.00
34031;BME280;20319;28.466;-16.274;2024-03-07T21:00:19;95977.56;;;13.82;100.00
34031;BME280;20319;28.466;-16.274;2024-03-07T21:02:50;96006.91;;;13.98;100.00
34031;BME280;20319;28.466;-16.274;2024-03-07T21:05:17;95979.16;;;13.83;100.00
34031;BME280;20319;28.466;-16.274;2024-03-07T21:07:44;96006.13;;;14.03;100.00
34031;BME280;20319;28.466;-16.274;2024-03-07T21:10:11;96034.66;;;14.19;100.00
34031;BME280;20319;28.466;-16.274;2024-03-07T21:12:44;96030.94;;;14.25;100.00
34031;BME280;20319;28.466;-16.274;2024-03-07T21:15:10;96007.19;;;14.07;100.00
34031;BME280;20319;28.466;-16.274;2024-03-07T21:17:37;95962.97;;;13.73;100.00
34031;BME280;20319;28.466;-16.274;2024-03-07T21:20:06;96061.59;;;14.24;100.00
34031;BME280;20319;28.466;-16.274;2024-03-07T21:22:42;96041.13;;;14.03;100.00
34031;BME280;20319;28.466;-16.274;2024-03-07T21:25:09;96044.34;;;13.90;100.00
34031;BME280;20319;28.466;-16.274;2024-03-07T21:27:42;96043.78;;;13.83;100.00
34031;BME280;20319;28.466;-16.274;2024-03-07T21:30:09;96046.69;;;13.71;100.00
34031;BME280;20319;28.466;-16.274;2024-03-07T21:32:36;96040.53;;;13.71;100.00
34031;BME280;20319;28.466;-16.274;2024-03-07T21:35:01;95967.72;;;13.25;100.00
34031;BME280;20319;28.466;-16.274;2024-03-07T21:37:30;96053.44;;;13.74;100.00
34031;BME280;20319;28.466;-16.274;2024-03-07T21:39:56;96063.94;;;13.75;100.00
34031;BME280;20319;28.466;-16.274;2024-03-07T21:42:22;96039.66;;;13.60;100.00
34031;BME280;20319;28.466;-16.274;2024-03-07T21:44:49;96061.53;;;13.74;100.00
34031;BME280;20319;28.466;-16.274;2024-03-07T21:47:15;96045.03;;;13.60;100.00
34031;BME280;20319;28.466;-16.274;2024-03-07T21:49:41;95997.34;;;13.30;100.00
34031;BME280;20319;28.466;-16.274;2024-03-07T21:52:11;96061.00;;;13.77;100.00
34031;BME280;20319;28.466;-16.274;2024-03-07T21:54:40;96059.13;;;13.77;100.00
34031;BME280;20319;28.466;-16.274;2024-03-07T21:57:06;96045.88;;;13.66;100.00
34031;BME280;20319;28.466;-16.274;2024-03-07T21:59:41;96048.84;;;13.64;100.00
34031;BME280;20319;28.466;-16.274;2024-03-07T22:02:07;95973.66;;;13.27;100.00
34031;BME280;20319;28.466;-16.274;2024-03-07T22:04:34;96055.06;;;13.80;100.00
34031;BME280;20319;28.466;-16.274;2024-03-07T22:07:00;96017.59;;;13.53;100.00
34031;BME280;20319;28.466;-16.274;2024-03-07T22:09:26;96037.84;;;13.76;100.00
34031;BME280;20319;28.466;-16.274;2024-03-07T22:11:52;96044.06;;;13.86;100.00
34031;BME280;20319;28.466;-16.274;2024-03-07T22:14:18;96055.88;;;13.90;100.00
34031;BME280;20319;28.466;-16.274;2024-03-07T22:16:54;96069.38;;;14.00;100.00
34031;BME280;20319;28.466;-16.274;2024-03-07T22:19:20;96062.38;;;13.89;100.00
34031;BME280;20319;28.466;-16.274;2024-03-07T22:21:46;96085.53;;;13.95;100.00
34031;BME280;20319;28.466;-16.274;2024-03-07T22:24:13;96048.63;;;13.76;100.00
34031;BME280;20319;28.466;-16.274;2024-03-07T22:26:39;96077.16;;;13.82;100.00
34031;BME280;20319;28.466;-16.274;2024-03-07T22:29:05;96067.19;;;13.77;100.00
34031;BME280;20319;28.466;-16.274;2024-03-07T22:31:35;96069.88;;;13.77;100.00
34031;BME280;20319;28.466;-16.274;2024-03-07T22:34:02;96061.25;;;13.75;100.00
34031;BME280;20319;28.466;-16.274;2024-03-07T22:36:29;96000.03;;;13.30;100.00
34031;BME280;20319;28.466;-16.274;2024-03-07T22:38:56;96025.13;;;13.56;100.00
34031;BME280;20319;28.466;-16.274;2024-03-07T22:41:22;96085.78;;;13.89;100.00
34031;BME280;20319;28.466;-16.274;2024-03-07T22:43:48;96054.00;;;13.76;100.00
34031;BME280;20319;28.466;-16.274;2024-03-07T22:46:13;96042.69;;;13.74;100.00
34031;BME280;20319;28.466;-16.274;2024-03-07T22:48:39;96010.84;;;13.51;100.00
34031;BME280;20319;28.466;-16.274;2024-03-07T22:51:06;96064.78;;;13.86;100.00
34031;BME280;20319;28.466;-16.274;2024-03-07T22:53:32;96070.72;;;13.93;100.00
34031;BME280;20319;28.466;-16.274;2024-03-07T22:55:57;96066.94;;;13.94;100.00
34031;BME280;20319;28.466;-16.274;2024-03-07T22:58:23;95976.88;;;13.34;100.00
34031;BME280;20319;28.466;-16.274;2024-03-07T23:00:50;96058.88;;;13.99;100.00
34031;BME280;20319;28.466;-16.274;2024-03-07T23:03:18;96069.09;;;13.97;100.00
34031;BME280;20319;28.466;-16.274;2024-03-07T23:05:43;95994.97;;;13.49;100.00
34031;BME280;20319;28.466;-16.274;2024-03-07T23:08:09;96042.69;;;13.79;100.00
34031;BME280;20319;28.466;-16.274;2024-03-07T23:10:35;96059.13;;;13.87;100.00
34031;BME280;20319;28.466;-16.274;2024-03-07T23:13:01;96003.88;;;13.55;100.00
34031;BME280;20319;28.466;-16.274;2024-03-07T23:15:27;96068.06;;;13.98;100.00
34031;BME280;20319;28.466;-16.274;2024-03-07T23:17:53;96055.09;;;13.90;100.00
34031;BME280;20319;28.466;-16.274;2024-03-07T23:20:22;96071.25;;;14.00;100.00
34031;BME280;20319;28.466;-16.274;2024-03-07T23:22:53;96057.25;;;13.93;100.00
34031;BME280;20319;28.466;-16.274;2024-03-07T23:25:20;96055.94;;;14.00;100.00
34031;BME280;20319;28.466;-16.274;2024-03-07T23:27:46;96062.13;;;13.96;100.00
34031;BME280;20319;28.466;-16.274;2024-03-07T23:30:21;95998.78;;;13.58;100.00
34031;BME280;20319;28.466;-16.274;2024-03-07T23:32:47;96042.16;;;13.92;100.00
34031;BME280;20319;28.466;-16.274;2024-03-07T23:35:15;95976.41;;;13.48;100.00
34031;BME280;20319;28.466;-16.274;2024-03-07T23:37:42;96060.22;;;13.86;100.00
34031;BME280;20319;28.466;-16.274;2024-03-07T23:40:09;95995.97;;;13.33;100.00
34031;BME280;20319;28.466;-16.274;2024-03-07T23:42:39;96000.81;;;13.26;100.00
34031;BME280;20319;28.466;-16.274;2024-03-07T23:45:06;96072.78;;;13.61;100.00
34031;BME280;20319;28.466;-16.274;2024-03-07T23:47:34;96064.66;;;13.46;100.00
34031;BME280;20319;28.466;-16.274;2024-03-07T23:50:01;96061.41;;;13.44;100.00
34031;BME280;20319;28.466;-16.274;2024-03-07T23:52:26;95927.63;;;12.57;100.00
34031;BME280;20319;28.466;-16.274;2024-03-07T23:54:55;96059.28;;;13.46;100.00
34031;BME280;20319;28.466;-16.274;2024-03-07T23:57:21;96085.13;;;13.52;100.00
34031;BME280;20319;28.466;-16.274;2024-03-07T23:59:47;96006.91;;;13.06;100.00
